»·PEaware :: DFGCW KEUG-KOTH

DFGCW :: KEUG-KOTH

FLIGHT INFORMATION

Flight Status: Arrived
Operator: Unknown
More flights by this operator :: More flights under this callsign
Pilot: Klaus A. (15485)
Aircraft: PILATUS PC-12 EAGLE
(PC12)
More flights by this aircraft type
Origin: KEUG Mahlon Sweet
United States
Destination: KOTH North Bend Mun
United States
More flights between these airports :: More routes between these airports
Route: +EUG V121 OTH
File this flight plan on PilotEdge
Remarks: / G Custom weather
Altitude:
(Current/Filed)
6,000ft
Speed:
(Current/Filed)
230kts
Departed: 18-Jun-18 12:04 PM
Arrived: 18-Jun-18 12:44 PM
Distance/Time
Traveled:
62nm/0:40
Distance/Time
To Go:
Arrived

Flight Plot

Page will automatically refresh every two minutes.

Flight plan parsing failed; only flown route is shown


Map Options




Map Legend


Flown Route
Filed Route
Departure Airport
Arrival Airport
Navaid (VOR, NDB)
Fix

Horizontal Profiles

Position Reports

Time Latitude Longitude Heading Altitude Ground
Speed
18-Jun-18 11:43 44.123468 -123.210894 207 380ft 0kts
18-Jun-18 11:44 44.123468 -123.210894 207 380ft 0kts
18-Jun-18 11:45 44.123468 -123.210894 207 380ft 0kts
18-Jun-18 11:46 44.123468 -123.210894 207 380ft 0kts
18-Jun-18 11:47 44.123468 -123.210894 207 380ft 0kts
18-Jun-18 11:48 44.123468 -123.210894 207 380ft 0kts
18-Jun-18 11:49 44.123468 -123.210894 207 380ft 0kts
18-Jun-18 11:50 44.123468 -123.210894 207 380ft 0kts
18-Jun-18 11:51 44.123468 -123.210894 207 380ft 0kts
18-Jun-18 11:52 44.123468 -123.210894 207 380ft 0kts
18-Jun-18 11:53 44.123468 -123.210894 207 380ft 0kts
18-Jun-18 11:54 44.123468 -123.210894 207 380ft 0kts
18-Jun-18 11:55 44.123468 -123.210894 207 380ft 0kts
18-Jun-18 11:56 44.123450 -123.211316 317 380ft 5kts
18-Jun-18 11:57 44.126298 -123.210117 38 380ft 11kts
18-Jun-18 11:58 44.126397 -123.204757 87 380ft 16kts
18-Jun-18 11:59 44.131187 -123.204279 358 380ft 19kts
18-Jun-18 12:00 44.132878 -123.203923 85 380ft 0kts
18-Jun-18 12:01 44.132878 -123.203923 85 380ft 0kts
18-Jun-18 12:02 44.132878 -123.203923 85 380ft 0kts
18-Jun-18 12:03 44.132435 -123.202696 179 379ft 11kts
18-Jun-18 12:04 44.106682 -123.200130 178 1399ft 130kts
18-Jun-18 12:05 44.066306 -123.194885 178 2885ft 160kts
18-Jun-18 12:06 44.021187 -123.188970 177 4229ft 167kts
18-Jun-18 12:07 43.972562 -123.182978 177 5022ft 197kts
18-Jun-18 12:08 43.927951 -123.178056 177 5811ft 193kts
18-Jun-18 12:09 43.878484 -123.190910 253 6006ft 199kts
18-Jun-18 12:10 43.878853 -123.267299 275 6001ft 202kts
18-Jun-18 12:11 43.881838 -123.345515 275 6003ft 204kts
18-Jun-18 12:12 43.885341 -123.437073 275 6002ft 204kts
18-Jun-18 12:13 43.888436 -123.515747 275 6001ft 204kts
18-Jun-18 12:14 43.867303 -123.571426 227 6009ft 212kts
18-Jun-18 12:15 43.826139 -123.628149 227 6065ft 210kts
18-Jun-18 12:16 43.783893 -123.683749 222 6070ft 211kts
18-Jun-18 12:17 43.740114 -123.737583 225 6066ft 211kts
18-Jun-18 12:18 43.697558 -123.793468 225 6068ft 211kts
18-Jun-18 12:19 43.656649 -123.847932 225 6071ft 212kts
18-Jun-18 12:20 43.622780 -123.910168 254 6085ft 208kts
18-Jun-18 12:21 43.606035 -123.985560 255 6086ft 209kts
18-Jun-18 12:22 43.588950 -124.062626 254 6048ft 212kts
18-Jun-18 12:23 43.571754 -124.140365 255 5999ft 211kts
18-Jun-18 12:24 43.554680 -124.217518 254 6002ft 210kts
18-Jun-18 12:25 43.534640 -124.292149 245 6003ft 209kts
18-Jun-18 12:26 43.509046 -124.363654 245 6000ft 208kts
18-Jun-18 12:27 43.484265 -124.432636 245 5314ft 187kts
18-Jun-18 12:28 43.461705 -124.494317 245 4122ft 185kts
18-Jun-18 12:29 43.437641 -124.560217 245 3022ft 194kts
18-Jun-18 12:30 43.415542 -124.619989 245 2996ft 162kts
18-Jun-18 12:31 43.394839 -124.675701 244 2999ft 162kts
18-Jun-18 12:32 43.374463 -124.730386 244 3001ft 160kts
18-Jun-18 12:33 43.351456 -124.782688 204 2998ft 165kts
18-Jun-18 12:34 43.325098 -124.742635 104 3003ft 166kts
18-Jun-18 12:35 43.322962 -124.679904 84 3001ft 166kts
18-Jun-18 12:36 43.325357 -124.616406 84 3001ft 167kts
18-Jun-18 12:37 43.327790 -124.552544 84 3001ft 168kts
18-Jun-18 12:38 43.330210 -124.489270 84 3001ft 168kts
18-Jun-18 12:39 43.344669 -124.431386 57 2810ft 176kts
18-Jun-18 12:40 43.369727 -124.370495 57 1843ft 174kts
18-Jun-18 12:41 43.390866 -124.318669 57 1075ft 125kts
18-Jun-18 12:42 43.405098 -124.283953 56 439ft 95kts
18-Jun-18 12:43 43.417833 -124.252982 57 27ft 83kts
18-Jun-18 12:44 43.421219 -124.242781 153 22ft 0kts
18-Jun-18 12:45 43.421081 -124.242697 154 23ft 0kts
18-Jun-18 12:46 43.419745 -124.245262 241 23ft 14kts
18-Jun-18 12:47 43.416291 -124.244838 148 23ft 18kts
18-Jun-18 12:48 43.415174 -124.245205 244 23ft 0kts
18-Jun-18 12:49 43.415174 -124.245205 244 23ft 0kts
18-Jun-18 12:50 43.415174 -124.245205 244 23ft 0kts
18-Jun-18 12:51 43.415174 -124.245205 244 23ft 0kts

Navigation Log

Ident Type
Flight plan parsing failed, navigation log unavailable